aviador You're here:

OMAD Decoded Metar

ABU DHABI in UNITED ARAB EMIRATES
Report Time2017-08-18 16:00:00
UTC Time2017-08-18 16:25:40
Flight Rules vfr VFR
Wind030° at 03 kt
W.Decomp.*RWY 31: 0.6 kt HW 2.9 kt RCW
W.Rank030° ranks 14
Current wind is below 030° avg. (4.7)
Visibility9999 m
Phenomena:N/A
Clouds:N/A
Expected CloudBase > 4,400 ft AGL from Temp-Dew spread
CeilingNone
Temp36°C (ISA +21)
Dew Point25°C (53% RH)
Heat Index44.5°C
QNH0999 hPa
Density Alt3,274 ft
Elevation10 ft
Report Wrong Elevation
Raw Report
METAR OMAD 181600Z 03003KT 360V060 CAVOK 36/25 Q0999 NOSIG=

Extra information for OMAD:More info

Metar Taf Metar & Taf Last 4 Metars F.Rules Stats Wind Profile Meteogram Temp Stats Airport Information Weather charts Add Link Nearby VenuesMetar ALERT Operation Metar Decoded Social comments